createdAt,value
2023-04-05T00:01:13.098Z,22.81
2023-04-05T00:03:47.546Z,22.76
2023-04-05T00:06:22.780Z,22.80
2023-04-05T00:08:55.608Z,22.79
2023-04-05T00:11:31.616Z,22.74
2023-04-05T00:14:03.847Z,22.76
2023-04-05T00:16:37.321Z,22.75
2023-04-05T00:19:08.100Z,22.73
2023-04-05T00:21:38.251Z,22.72
2023-04-05T00:24:09.539Z,22.72
2023-04-05T00:26:40.261Z,22.72
2023-04-05T00:29:16.339Z,22.72
2023-04-05T00:31:46.877Z,22.70
2023-04-05T00:34:20.438Z,22.72
2023-04-05T00:36:50.976Z,22.70
2023-04-05T00:39:24.629Z,22.72
2023-04-05T00:41:55.395Z,22.67
2023-04-05T00:44:29.040Z,22.70
2023-04-05T00:47:01.532Z,22.66
2023-04-05T00:49:35.022Z,22.67
2023-04-05T00:52:05.184Z,22.69
2023-04-05T00:54:38.265Z,22.70
2023-04-05T00:57:11.514Z,22.62
2023-04-05T00:59:45.426Z,22.58
2023-04-05T01:02:32.147Z,22.57
2023-04-05T01:05:38.557Z,22.60
2023-04-05T01:08:30.835Z,22.62
2023-04-05T01:11:08.625Z,22.60
2023-04-05T01:13:44.850Z,22.61
2023-04-05T01:16:15.179Z,22.59
2023-04-05T01:18:56.407Z,22.58
2023-04-05T01:21:30.138Z,22.61
2023-04-05T01:24:18.830Z,22.59
2023-04-05T01:27:06.969Z,22.56
2023-04-05T01:29:47.617Z,22.57
2023-04-05T01:32:24.352Z,22.54
2023-04-05T01:35:15.523Z,22.52
2023-04-05T01:37:51.734Z,22.50
2023-04-05T01:40:24.784Z,22.50
2023-04-05T01:42:57.390Z,22.51
2023-04-05T01:45:31.914Z,22.49
2023-04-05T01:48:01.656Z,22.46
2023-04-05T01:50:33.810Z,22.46
2023-04-05T01:53:01.460Z,22.44
2023-04-05T01:55:28.986Z,22.43
2023-04-05T01:57:57.684Z,22.44
2023-04-05T02:00:31.123Z,22.45
2023-04-05T02:03:01.941Z,22.40
2023-04-05T02:05:35.094Z,22.41
2023-04-05T02:08:08.045Z,22.43
2023-04-05T02:10:35.847Z,22.43
2023-04-05T02:13:06.631Z,22.39
2023-04-05T02:15:45.144Z,22.40
2023-04-05T02:18:22.438Z,22.39
2023-04-05T02:20:51.330Z,22.37
2023-04-05T02:23:21.947Z,22.39
2023-04-05T02:25:56.807Z,22.41
2023-04-05T02:28:28.100Z,22.36
2023-04-05T02:31:00.945Z,22.32
2023-04-05T02:33:29.693Z,22.30
2023-04-05T02:36:06.814Z,22.33
2023-04-05T02:38:37.854Z,22.29
2023-04-05T02:41:11.649Z,22.29
2023-04-05T02:43:42.914Z,22.34
2023-04-05T02:46:10.669Z,22.35
2023-04-05T02:48:50.119Z,22.33
2023-04-05T02:51:21.842Z,22.32
2023-04-05T02:53:53.053Z,22.28
2023-04-05T02:56:23.547Z,22.33
2023-04-05T02:58:54.721Z,22.31
2023-04-05T03:01:32.917Z,22.30
2023-04-05T03:04:04.037Z,22.25
2023-04-05T03:06:34.929Z,22.23
2023-04-05T03:09:04.399Z,22.24
2023-04-05T03:11:35.049Z,22.23
2023-04-05T03:14:05.526Z,22.24
2023-04-05T03:16:47.723Z,22.26
2023-04-05T03:19:35.654Z,22.21
2023-04-05T03:22:22.653Z,22.19
2023-04-05T03:24:54.910Z,22.18
2023-04-05T03:27:29.632Z,22.18
2023-04-05T03:30:21.899Z,22.14
2023-04-05T03:33:01.359Z,22.12
2023-04-05T03:35:55.013Z,22.14
2023-04-05T03:38:29.032Z,22.14
2023-04-05T03:41:16.181Z,22.14
2023-04-05T03:43:46.905Z,22.14
2023-04-05T03:46:14.574Z,22.14
2023-04-05T03:48:47.401Z,22.17
2023-04-05T03:51:19.024Z,22.17
2023-04-05T03:53:56.412Z,22.14
2023-04-05T03:56:32.284Z,22.14
2023-04-05T03:59:10.279Z,22.18
2023-04-05T04:01:47.526Z,22.17
2023-04-05T04:04:21.261Z,22.14
2023-04-05T04:06:54.662Z,22.12
2023-04-05T04:09:30.753Z,22.17
2023-04-05T04:12:13.919Z,22.12
2023-04-05T04:14:56.050Z,22.14
2023-04-05T04:17:49.173Z,22.16
2023-04-05T04:20:45.946Z,22.16
2023-04-05T04:23:30.560Z,22.11
2023-04-05T04:26:29.248Z,22.12
2023-04-05T04:29:33.586Z,22.12
2023-04-05T04:32:27.969Z,22.17
2023-04-05T04:35:14.561Z,22.11
2023-04-05T04:38:06.149Z,22.12
2023-04-05T04:40:51.142Z,22.17
2023-04-05T04:43:42.968Z,22.17
2023-04-05T04:46:42.875Z,22.11
2023-04-05T04:49:18.002Z,22.15
2023-04-05T04:51:52.908Z,22.16
2023-04-05T04:54:28.878Z,22.15
2023-04-05T04:57:02.557Z,22.14
2023-04-05T04:59:35.586Z,22.19
2023-04-05T05:02:12.499Z,22.20
2023-04-05T05:04:44.018Z,22.18
2023-04-05T05:07:18.873Z,22.12
2023-04-05T05:09:52.475Z,22.18
2023-04-05T05:12:21.102Z,22.19
2023-04-05T05:14:53.956Z,22.17
2023-04-05T05:17:29.270Z,22.21
2023-04-05T05:20:00.539Z,22.21
2023-04-05T05:22:31.971Z,22.23
2023-04-05T05:25:10.025Z,22.21
2023-04-05T05:27:44.050Z,22.28
2023-04-05T05:30:15.912Z,22.28
2023-04-05T05:32:58.305Z,22.38
2023-04-05T05:35:32.235Z,22.35
2023-04-05T05:38:02.724Z,22.32
2023-04-05T05:40:36.051Z,22.22
2023-04-05T05:43:06.456Z,22.20
2023-04-05T05:45:36.605Z,22.22
2023-04-05T05:48:09.022Z,22.21
2023-04-05T05:50:39.613Z,22.19
2023-04-05T05:53:16.500Z,22.28
2023-04-05T05:55:47.293Z,22.26
2023-04-05T05:58:21.236Z,22.31
2023-04-05T06:00:51.614Z,22.34
2023-04-05T06:03:19.384Z,22.31
2023-04-05T06:05:59.987Z,22.34
2023-04-05T06:08:33.821Z,22.38
2023-04-05T06:11:05.208Z,22.46
2023-04-05T06:13:39.185Z,22.49
2023-04-05T06:16:07.407Z,22.56
2023-04-05T06:18:47.146Z,22.68
2023-04-05T06:21:17.722Z,22.80
2023-04-05T06:23:53.497Z,22.75
2023-04-05T06:26:27.445Z,22.77
2023-04-05T06:29:00.908Z,22.79
2023-04-05T06:31:42.321Z,22.83
2023-04-05T06:34:12.044Z,22.82
2023-04-05T06:36:47.439Z,22.91
2023-04-05T06:39:17.914Z,23.02
2023-04-05T06:41:58.717Z,23.03
2023-04-05T06:44:33.696Z,22.94
2023-04-05T06:47:04.909Z,23.04
2023-04-05T06:49:38.467Z,23.17
2023-04-05T06:52:07.812Z,23.25
2023-04-05T06:54:47.253Z,23.34
2023-04-05T06:57:20.441Z,23.29
2023-04-05T07:00:00.483Z,23.40
2023-04-05T07:02:37.516Z,23.46
2023-04-05T07:05:10.056Z,23.48
2023-04-05T07:07:45.987Z,23.50
2023-04-05T07:10:20.957Z,23.54
2023-04-05T07:12:52.648Z,23.60
2023-04-05T07:15:21.023Z,23.73
2023-04-05T07:17:49.365Z,23.85
2023-04-05T07:20:23.014Z,23.73
2023-04-05T07:22:59.088Z,23.81
2023-04-05T07:25:27.870Z,23.85
2023-04-05T07:27:58.910Z,24.01
2023-04-05T07:30:29.627Z,24.17
2023-04-05T07:32:58.588Z,24.43
2023-04-05T07:35:29.863Z,24.57
2023-04-05T07:38:03.661Z,24.52
2023-04-05T07:40:37.079Z,24.53
2023-04-05T07:43:07.754Z,24.56
2023-04-05T07:45:38.815Z,24.68
2023-04-05T07:48:12.011Z,24.49
2023-04-05T07:50:49.990Z,24.58
2023-04-05T07:53:20.749Z,24.55
2023-04-05T07:55:54.059Z,24.47
2023-04-05T07:58:23.354Z,24.36
2023-04-05T08:00:57.428Z,24.36
2023-04-05T08:03:35.155Z,24.63
2023-04-05T08:06:25.063Z,24.82
2023-04-05T08:09:03.905Z,25.17
2023-04-05T08:11:40.588Z,25.26
2023-04-05T08:14:11.060Z,25.08
2023-04-05T08:16:46.817Z,24.92
2023-04-05T08:19:18.372Z,24.95
2023-04-05T08:21:56.194Z,25.08
2023-04-05T08:24:33.517Z,24.87
2023-04-05T08:27:14.963Z,25.04
2023-04-05T08:29:56.813Z,24.90
2023-04-05T08:32:35.523Z,24.94
2023-04-05T08:35:08.888Z,24.90
2023-04-05T08:37:42.981Z,24.84
2023-04-05T08:40:23.537Z,24.91
2023-04-05T08:43:11.950Z,25.06
2023-04-05T08:46:01.414Z,25.18
2023-04-05T08:48:39.374Z,25.17
2023-04-05T08:51:13.701Z,25.14
2023-04-05T08:53:45.654Z,25.49
2023-04-05T08:56:17.556Z,25.52
2023-04-05T08:59:00.349Z,25.62
2023-04-05T09:01:38.216Z,25.63
2023-04-05T09:04:12.864Z,25.57
2023-04-05T09:06:48.091Z,25.60
2023-04-05T09:09:26.445Z,25.67
2023-04-05T09:11:58.530Z,25.57
2023-04-05T09:14:38.954Z,25.55
2023-04-05T09:17:12.698Z,25.30
2023-04-05T09:19:51.527Z,25.39
2023-04-05T09:22:31.373Z,25.45
2023-04-05T09:25:10.721Z,25.28
2023-04-05T09:27:58.985Z,25.21
2023-04-05T09:30:38.619Z,25.22
2023-04-05T09:33:30.448Z,25.46
2023-04-05T09:36:06.319Z,25.78
2023-04-05T09:38:47.840Z,26.19
2023-04-05T09:41:21.722Z,26.17
2023-04-05T09:43:49.369Z,26.05
2023-04-05T09:46:39.679Z,25.92
2023-04-05T09:49:18.986Z,25.80
2023-04-05T09:51:56.728Z,25.73
2023-04-05T09:54:30.728Z,25.70
2023-04-05T09:57:03.387Z,25.58
2023-04-05T09:59:33.594Z,25.50
2023-04-05T10:02:10.635Z,25.41
2023-04-05T10:04:50.024Z,25.35
2023-04-05T10:07:25.562Z,25.26
2023-04-05T10:09:56.080Z,25.29
2023-04-05T10:12:28.572Z,25.32
2023-04-05T10:15:05.400Z,25.31
2023-04-05T10:18:03.865Z,25.17
2023-04-05T10:20:43.306Z,25.18
2023-04-05T10:23:23.371Z,25.41
2023-04-05T10:26:08.571Z,25.22
2023-04-05T10:28:47.889Z,25.25
2023-04-05T10:31:55.779Z,25.49
2023-04-05T10:35:00.995Z,25.37
2023-04-05T10:37:37.250Z,25.77
2023-04-05T10:40:17.066Z,26.21
2023-04-05T10:42:49.168Z,27.20
2023-04-05T10:45:23.288Z,27.72
2023-04-05T10:47:59.898Z,28.29
2023-04-05T10:50:30.863Z,28.53
2023-04-05T10:53:03.289Z,28.48
2023-04-05T10:55:31.965Z,27.87
2023-04-05T10:58:06.726Z,27.17
2023-04-05T11:00:36.989Z,26.70
2023-04-05T11:03:10.224Z,26.33
2023-04-05T11:05:40.910Z,26.07
2023-04-05T11:08:12.749Z,25.89
2023-04-05T11:10:54.664Z,25.73
2023-04-05T11:13:52.757Z,25.57
2023-04-05T11:16:22.495Z,25.46
2023-04-05T11:18:56.353Z,25.29
2023-04-05T11:21:26.180Z,25.23
2023-04-05T11:24:17.922Z,25.20
2023-04-05T11:26:54.725Z,25.11
2023-04-05T11:29:52.241Z,25.03
2023-04-05T11:32:46.757Z,24.95
2023-04-05T11:35:23.175Z,24.96
2023-04-05T11:38:00.749Z,24.97
2023-04-05T11:40:37.410Z,25.01
2023-04-05T11:43:12.424Z,25.08
2023-04-05T11:45:48.010Z,25.10
2023-04-05T11:48:22.901Z,25.07
2023-04-05T11:50:54.700Z,25.05
2023-04-05T11:53:22.800Z,25.01
2023-04-05T11:55:55.533Z,25.08
2023-04-05T11:58:25.841Z,25.13
2023-04-05T12:01:09.776Z,25.07
2023-04-05T12:03:41.288Z,25.04
2023-04-05T12:06:09.629Z,25.19
2023-04-05T12:08:42.276Z,25.19
2023-04-05T12:11:22.886Z,25.14
2023-04-05T12:13:58.601Z,25.03
2023-04-05T12:16:32.469Z,25.04
2023-04-05T12:19:03.912Z,24.91
2023-04-05T12:21:39.106Z,25.00
2023-04-05T12:24:10.765Z,25.05
2023-04-05T12:26:43.268Z,24.89
2023-04-05T12:29:17.913Z,25.01
2023-04-05T12:31:55.371Z,25.07
2023-04-05T12:34:33.895Z,25.20
2023-04-05T12:37:08.074Z,25.27
2023-04-05T12:39:47.663Z,25.16
2023-04-05T12:42:22.728Z,25.26
2023-04-05T12:45:15.316Z,25.22
2023-04-05T12:48:00.120Z,25.16
2023-04-05T12:50:34.614Z,25.20
2023-04-05T12:53:23.414Z,25.10
2023-04-05T12:56:00.741Z,25.02
2023-04-05T12:58:40.739Z,24.90
2023-04-05T13:01:13.899Z,24.86
2023-04-05T13:03:58.924Z,24.85
2023-04-05T13:06:39.589Z,24.84
2023-04-05T13:09:18.485Z,24.78
2023-04-05T13:12:04.595Z,24.79
2023-04-05T13:14:35.720Z,24.75
2023-04-05T13:17:14.202Z,24.81
2023-04-05T13:19:48.404Z,24.75
2023-04-05T13:22:20.935Z,24.80
2023-04-05T13:24:55.539Z,24.80
2023-04-05T13:27:25.810Z,24.71
2023-04-05T13:30:05.153Z,24.72
2023-04-05T13:32:41.552Z,24.56
2023-04-05T13:35:15.399Z,24.65
2023-04-05T13:37:51.346Z,24.73
2023-04-05T13:40:26.169Z,24.79
2023-04-05T13:43:06.759Z,24.68
2023-04-05T13:45:39.441Z,24.57
2023-04-05T13:48:15.517Z,24.49
2023-04-05T13:50:53.176Z,24.51
2023-04-05T13:53:28.482Z,24.48
2023-04-05T13:56:03.121Z,24.43
2023-04-05T13:58:35.705Z,24.42
2023-04-05T14:01:09.521Z,24.43
2023-04-05T14:03:40.773Z,24.37
2023-04-05T14:06:16.465Z,24.39
2023-04-05T14:08:55.015Z,24.34
2023-04-05T14:11:25.705Z,24.34
2023-04-05T14:13:59.175Z,24.27
2023-04-05T14:16:30.520Z,24.34
2023-04-05T14:19:03.560Z,24.30
2023-04-05T14:21:37.460Z,24.29
2023-04-05T14:24:07.998Z,24.24
2023-04-05T14:26:41.761Z,24.26
2023-04-05T14:29:10.649Z,24.24
2023-04-05T14:31:43.895Z,24.25
2023-04-05T14:34:12.548Z,24.21
2023-04-05T14:36:43.574Z,24.29
2023-04-05T14:39:20.024Z,24.24
2023-04-05T14:41:56.851Z,24.29
2023-04-05T14:44:34.633Z,24.21
2023-04-05T14:47:14.991Z,24.24
2023-04-05T14:49:48.217Z,24.23
2023-04-05T14:52:21.048Z,24.23
2023-04-05T14:54:57.436Z,24.18
2023-04-05T14:57:34.176Z,24.24
2023-04-05T15:00:12.886Z,24.22
2023-04-05T15:02:49.000Z,24.20
2023-04-05T15:05:25.251Z,24.22
2023-04-05T15:07:53.355Z,24.19
2023-04-05T15:10:23.379Z,24.22
2023-04-05T15:12:54.366Z,24.21
2023-04-05T15:15:22.610Z,24.20
2023-04-05T15:17:55.669Z,24.18
2023-04-05T15:20:30.273Z,24.26
2023-04-05T15:22:58.450Z,24.32
2023-04-05T15:25:29.990Z,24.29
2023-04-05T15:28:06.742Z,24.41
2023-04-05T15:30:43.470Z,24.36
2023-04-05T15:33:20.829Z,24.53
2023-04-05T15:35:48.951Z,24.71
2023-04-05T15:38:22.924Z,24.67
2023-04-05T15:40:59.337Z,24.76
2023-04-05T15:43:31.157Z,24.78
2023-04-05T15:46:04.597Z,24.79
2023-04-05T15:48:38.655Z,24.73
2023-04-05T15:51:13.174Z,24.67
2023-04-05T15:53:46.967Z,24.59
2023-04-05T15:56:20.853Z,24.67
2023-04-05T15:59:00.665Z,24.73
2023-04-05T16:01:35.126Z,24.72
2023-04-05T16:04:10.293Z,24.55
2023-04-05T16:06:45.724Z,24.51
2023-04-05T16:09:18.789Z,24.58
2023-04-05T16:11:52.836Z,24.56
2023-04-05T16:14:29.588Z,24.59
2023-04-05T16:17:02.907Z,24.53
2023-04-05T16:19:31.564Z,24.43
2023-04-05T16:22:08.082Z,24.46
2023-04-05T16:25:03.384Z,24.31
2023-04-05T16:27:44.459Z,24.21
2023-04-05T16:30:26.776Z,24.30
2023-04-05T16:33:07.366Z,24.21
2023-04-05T16:35:52.296Z,24.23
2023-04-05T16:38:33.978Z,24.25
2023-04-05T16:41:15.928Z,24.23
2023-04-05T16:43:56.150Z,24.17
2023-04-05T16:46:34.365Z,24.12
2023-04-05T16:49:12.544Z,24.09
2023-04-05T16:51:56.511Z,24.11
2023-04-05T16:54:38.188Z,24.13
2023-04-05T16:57:19.662Z,24.07
2023-04-05T17:00:01.857Z,24.12
2023-04-05T17:02:37.690Z,24.15
2023-04-05T17:05:34.156Z,24.10
2023-04-05T17:08:13.204Z,24.08
2023-04-05T17:11:01.156Z,24.05
2023-04-05T17:13:41.890Z,24.04
2023-04-05T17:16:20.874Z,24.09
2023-04-05T17:19:01.915Z,24.07
2023-04-05T17:21:47.339Z,24.07
2023-04-05T17:24:24.392Z,24.00
2023-04-05T17:27:02.072Z,23.96
2023-04-05T17:29:49.178Z,23.96
2023-04-05T17:32:27.590Z,23.92
2023-04-05T17:35:07.746Z,23.92
2023-04-05T17:37:57.959Z,23.90
2023-04-05T17:40:33.665Z,23.90
2023-04-05T17:43:10.830Z,23.88
2023-04-05T17:45:57.699Z,23.88
2023-04-05T17:48:33.468Z,23.90
2023-04-05T17:51:16.429Z,23.87
2023-04-05T17:54:00.840Z,23.88
2023-04-05T17:56:55.949Z,23.78
2023-04-05T17:59:34.196Z,23.81
2023-04-05T18:02:18.366Z,23.77
2023-04-05T18:05:00.048Z,23.72
2023-04-05T18:07:56.126Z,23.75
2023-04-05T18:10:36.033Z,23.73
2023-04-05T18:13:15.982Z,23.67
2023-04-05T18:16:03.480Z,23.70
2023-04-05T18:18:45.036Z,23.69
2023-04-05T18:21:16.178Z,23.66
2023-04-05T18:23:56.631Z,23.66
2023-04-05T18:26:39.962Z,23.63
2023-04-05T18:29:30.509Z,23.60
2023-04-05T18:32:12.796Z,23.59
2023-04-05T18:34:58.360Z,23.58
2023-04-05T18:37:37.847Z,23.60
2023-04-05T18:40:20.691Z,23.60
2023-04-05T18:42:59.261Z,23.62
2023-04-05T18:45:41.088Z,23.59
2023-04-05T18:48:20.603Z,23.62
2023-04-05T18:50:59.592Z,23.63
2023-04-05T18:53:42.300Z,23.57
2023-04-05T18:56:29.888Z,23.59
2023-04-05T18:59:03.228Z,23.59
2023-04-05T19:01:50.019Z,23.53
2023-04-05T19:04:26.749Z,23.54
2023-04-05T19:07:08.079Z,23.53
2023-04-05T19:09:47.187Z,23.51
2023-04-05T19:12:28.950Z,23.51
2023-04-05T19:15:07.443Z,23.55
2023-04-05T19:17:47.467Z,23.50
2023-04-05T19:20:27.961Z,23.39
2023-04-05T19:23:12.193Z,23.44
2023-04-05T19:25:49.235Z,23.36
2023-04-05T19:28:29.089Z,23.31
2023-04-05T19:31:06.674Z,23.36
2023-04-05T19:33:46.943Z,23.37
2023-04-05T19:36:24.810Z,23.33
2023-04-05T19:39:06.626Z,23.33
2023-04-05T19:41:48.177Z,23.29
2023-04-05T19:44:51.045Z,23.31
2023-04-05T19:47:34.076Z,23.26
2023-04-05T19:50:34.494Z,23.25
2023-04-05T19:53:13.188Z,23.24
2023-04-05T19:55:48.933Z,23.24
2023-04-05T19:58:34.283Z,23.22
2023-04-05T20:01:49.980Z,23.23
2023-04-05T20:04:31.923Z,23.23
2023-04-05T20:07:20.265Z,23.21
2023-04-05T20:10:01.373Z,23.17
2023-04-05T20:12:34.352Z,23.19
2023-04-05T20:15:32.250Z,23.18
2023-04-05T20:18:09.467Z,23.18
2023-04-05T20:20:53.712Z,23.16
2023-04-05T20:23:34.070Z,23.19
2023-04-05T20:26:16.308Z,23.16
2023-04-05T20:28:54.158Z,23.13
2023-04-05T20:31:39.103Z,23.17
2023-04-05T20:34:22.284Z,23.14
2023-04-05T20:37:10.382Z,23.12
2023-04-05T20:39:56.124Z,23.09
2023-04-05T20:42:35.425Z,23.10
2023-04-05T20:45:22.753Z,23.07
2023-04-05T20:48:03.942Z,23.05
2023-04-05T20:50:42.156Z,23.07
2023-04-05T20:53:15.943Z,23.04
2023-04-05T20:55:59.168Z,23.03
2023-04-05T20:58:38.687Z,23.05
2023-04-05T21:01:23.880Z,23.07
2023-04-05T21:04:05.114Z,22.99
2023-04-05T21:06:49.280Z,22.96
2023-04-05T21:09:28.428Z,23.00
2023-04-05T21:12:04.092Z,23.03
2023-04-05T21:14:45.026Z,23.00
2023-04-05T21:17:26.490Z,22.96
2023-04-05T21:20:12.871Z,22.95
2023-04-05T21:22:51.800Z,22.98
2023-04-05T21:25:34.389Z,22.94
2023-04-05T21:28:12.840Z,22.94
2023-04-05T21:30:54.495Z,22.93
2023-04-05T21:33:32.453Z,22.93
2023-04-05T21:36:09.339Z,22.89
2023-04-05T21:38:50.712Z,22.90
2023-04-05T21:41:28.758Z,22.88
2023-04-05T21:44:18.250Z,22.88
2023-04-05T21:46:57.726Z,22.85
2023-04-05T21:49:41.955Z,22.87
2023-04-05T21:52:21.772Z,22.85
2023-04-05T21:55:05.808Z,22.87
2023-04-05T21:57:42.537Z,22.86
2023-04-05T22:00:21.149Z,22.87
2023-04-05T22:03:10.383Z,22.87
2023-04-05T22:05:54.336Z,22.87
2023-04-05T22:08:36.353Z,22.83
2023-04-05T22:11:20.776Z,22.83
2023-04-05T22:14:01.851Z,22.80
2023-04-05T22:16:40.780Z,22.80
2023-04-05T22:19:23.611Z,22.79
2023-04-05T22:22:09.296Z,22.77
2023-04-05T22:24:44.507Z,22.77
2023-04-05T22:27:25.895Z,22.77
2023-04-05T22:30:10.008Z,22.76
2023-04-05T22:32:51.936Z,22.73
2023-04-05T22:35:37.430Z,22.70
2023-04-05T22:38:24.252Z,22.73
2023-04-05T22:41:06.446Z,22.69
2023-04-05T22:43:45.697Z,22.68
2023-04-05T22:46:15.154Z,22.68
2023-04-05T22:48:55.344Z,22.66
2023-04-05T22:51:43.015Z,22.65
2023-04-05T22:54:25.631Z,22.65
2023-04-05T22:57:11.522Z,22.65
2023-04-05T22:59:53.160Z,22.62
2023-04-05T23:02:34.859Z,22.64
2023-04-05T23:05:13.283Z,22.65
2023-04-05T23:07:56.782Z,22.62
2023-04-05T23:10:38.609Z,22.63
2023-04-05T23:13:24.944Z,22.61
2023-04-05T23:16:07.472Z,22.62
2023-04-05T23:18:41.633Z,22.61
2023-04-05T23:21:29.632Z,22.59
2023-04-05T23:24:11.082Z,22.58
2023-04-05T23:26:45.097Z,22.56
2023-04-05T23:29:26.136Z,22.58
2023-04-05T23:32:13.630Z,22.54
2023-04-05T23:35:04.118Z,22.53
2023-04-05T23:37:40.464Z,22.52
2023-04-05T23:40:13.930Z,22.50
2023-04-05T23:42:55.847Z,22.50
2023-04-05T23:45:32.459Z,22.50
2023-04-05T23:48:19.179Z,22.47
2023-04-05T23:50:58.518Z,22.47
2023-04-05T23:53:39.518Z,22.47
2023-04-05T23:56:18.308Z,22.46
2023-04-05T23:59:02.403Z,22.44
